sensor_id;sensor_type;location;lat;lon;timestamp;temperature;humidity
11055;DHT22;5580;50.106;8.702;2022-07-29T00:01:06;23.20;72.70
11055;DHT22;5580;50.106;8.702;2022-07-29T00:03:32;23.20;72.70
11055;DHT22;5580;50.106;8.702;2022-07-29T00:05:58;23.10;72.90
11055;DHT22;5580;50.106;8.702;2022-07-29T00:08:23;23.10;73.50
11055;DHT22;5580;50.106;8.702;2022-07-29T00:10:49;23.10;73.50
11055;DHT22;5580;50.106;8.702;2022-07-29T00:13:15;23.10;73.10
11055;DHT22;5580;50.106;8.702;2022-07-29T00:15:40;23.10;73.50
11055;DHT22;5580;50.106;8.702;2022-07-29T00:18:06;23.10;73.60
11055;DHT22;5580;50.106;8.702;2022-07-29T00:20:32;23.00;73.10
11055;DHT22;5580;50.106;8.702;2022-07-29T00:22:57;23.00;73.30
11055;DHT22;5580;50.106;8.702;2022-07-29T00:25:23;23.10;73.10
11055;DHT22;5580;50.106;8.702;2022-07-29T00:27:49;23.20;73.30
11055;DHT22;5580;50.106;8.702;2022-07-29T00:30:14;23.20;72.90
11055;DHT22;5580;50.106;8.702;2022-07-29T00:32:40;23.30;72.80
11055;DHT22;5580;50.106;8.702;2022-07-29T00:35:06;23.30;72.70
11055;DHT22;5580;50.106;8.702;2022-07-29T00:37:51;23.30;72.20
11055;DHT22;5580;50.106;8.702;2022-07-29T00:40:16;23.30;72.20
11055;DHT22;5580;50.106;8.702;2022-07-29T00:42:43;23.30;71.80
11055;DHT22;5580;50.106;8.702;2022-07-29T00:45:09;23.30;71.60
11055;DHT22;5580;50.106;8.702;2022-07-29T00:47:35;23.30;71.90
11055;DHT22;5580;50.106;8.702;2022-07-29T00:50:01;23.30;71.80
11055;DHT22;5580;50.106;8.702;2022-07-29T00:52:26;23.30;71.80
11055;DHT22;5580;50.106;8.702;2022-07-29T00:54:52;23.30;71.20
11055;DHT22;5580;50.106;8.702;2022-07-29T00:57:18;23.30;71.10
11055;DHT22;5580;50.106;8.702;2022-07-29T00:59:43;23.30;71.30
11055;DHT22;5580;50.106;8.702;2022-07-29T01:02:09;23.30;70.90
11055;DHT22;5580;50.106;8.702;2022-07-29T01:04:35;23.30;71.40
11055;DHT22;5580;50.106;8.702;2022-07-29T01:07:01;23.30;71.00
11055;DHT22;5580;50.106;8.702;2022-07-29T01:09:27;23.30;70.80
11055;DHT22;5580;50.106;8.702;2022-07-29T01:11:53;23.30;70.70
11055;DHT22;5580;50.106;8.702;2022-07-29T01:14:21;23.30;70.40
11055;DHT22;5580;50.106;8.702;2022-07-29T01:17:08;23.30;70.20
11055;DHT22;5580;50.106;8.702;2022-07-29T01:27:44;23.00;70.10
11055;DHT22;5580;50.106;8.702;2022-07-29T01:30:13;23.00;70.40
11055;DHT22;5580;50.106;8.702;2022-07-29T01:32:41;23.00;71.00
11055;DHT22;5580;50.106;8.702;2022-07-29T01:35:18;23.00;70.60
11055;DHT22;5580;50.106;8.702;2022-07-29T01:37:50;23.00;70.90
11055;DHT22;5580;50.106;8.702;2022-07-29T01:40:24;22.90;71.10
11055;DHT22;5580;50.106;8.702;2022-07-29T01:42:55;22.80;71.30
11055;DHT22;5580;50.106;8.702;2022-07-29T01:48:16;22.80;72.40
11055;DHT22;5580;50.106;8.702;2022-07-29T01:51:04;22.80;72.40
11055;DHT22;5580;50.106;8.702;2022-07-29T01:54:04;22.80;72.30
11055;DHT22;5580;50.106;8.702;2022-07-29T01:56:32;22.80;72.70
11055;DHT22;5580;50.106;8.702;2022-07-29T01:59:01;22.70;72.70
11055;DHT22;5580;50.106;8.702;2022-07-29T02:01:30;22.60;72.60
11055;DHT22;5580;50.106;8.702;2022-07-29T02:03:57;22.60;73.20
11055;DHT22;5580;50.106;8.702;2022-07-29T02:06:24;22.50;73.30
11055;DHT22;5580;50.106;8.702;2022-07-29T02:08:51;22.50;73.60
11055;DHT22;5580;50.106;8.702;2022-07-29T02:11:18;22.50;74.30
11055;DHT22;5580;50.106;8.702;2022-07-29T02:13:44;22.60;74.50
11055;DHT22;5580;50.106;8.702;2022-07-29T02:16:12;22.60;74.50
11055;DHT22;5580;50.106;8.702;2022-07-29T02:18:41;22.60;74.60
11055;DHT22;5580;50.106;8.702;2022-07-29T02:21:08;22.50;74.60
11055;DHT22;5580;50.106;8.702;2022-07-29T02:23:35;22.40;75.10
11055;DHT22;5580;50.106;8.702;2022-07-29T02:26:03;22.40;75.20
11055;DHT22;5580;50.106;8.702;2022-07-29T02:28:29;22.40;75.50
11055;DHT22;5580;50.106;8.702;2022-07-29T02:30:58;22.40;75.90
11055;DHT22;5580;50.106;8.702;2022-07-29T02:33:25;22.40;76.20
11055;DHT22;5580;50.106;8.702;2022-07-29T02:35:52;22.30;76.80
11055;DHT22;5580;50.106;8.702;2022-07-29T02:38:19;22.30;77.00
11055;DHT22;5580;50.106;8.702;2022-07-29T02:41:09;22.20;77.40
11055;DHT22;5580;50.106;8.702;2022-07-29T02:43:37;22.20;78.00
11055;DHT22;5580;50.106;8.702;2022-07-29T02:46:06;22.20;78.40
11055;DHT22;5580;50.106;8.702;2022-07-29T02:48:41;22.10;78.70
11055;DHT22;5580;50.106;8.702;2022-07-29T02:51:13;22.10;79.00
11055;DHT22;5580;50.106;8.702;2022-07-29T02:53:44;22.10;79.20
11055;DHT22;5580;50.106;8.702;2022-07-29T02:56:14;22.10;79.30
11055;DHT22;5580;50.106;8.702;2022-07-29T02:58:47;22.20;79.30
11055;DHT22;5580;50.106;8.702;2022-07-29T03:01:22;22.20;80.00
11055;DHT22;5580;50.106;8.702;2022-07-29T03:03:49;22.30;80.40
11055;DHT22;5580;50.106;8.702;2022-07-29T03:06:17;22.20;79.90
11055;DHT22;5580;50.106;8.702;2022-07-29T03:08:44;22.20;79.80
11055;DHT22;5580;50.106;8.702;2022-07-29T03:11:11;22.20;81.40
11055;DHT22;5580;50.106;8.702;2022-07-29T03:13:38;22.10;82.40
11055;DHT22;5580;50.106;8.702;2022-07-29T03:16:05;22.10;81.90
11055;DHT22;5580;50.106;8.702;2022-07-29T03:18:31;22.00;82.30
11055;DHT22;5580;50.106;8.702;2022-07-29T03:20:57;21.80;82.60
11055;DHT22;5580;50.106;8.702;2022-07-29T03:23:23;21.70;84.00
11055;DHT22;5580;50.106;8.702;2022-07-29T03:25:51;21.70;83.80
11055;DHT22;5580;50.106;8.702;2022-07-29T03:28:16;21.60;84.70
11055;DHT22;5580;50.106;8.702;2022-07-29T03:30:42;21.60;84.80
11055;DHT22;5580;50.106;8.702;2022-07-29T03:33:08;21.50;85.00
11055;DHT22;5580;50.106;8.702;2022-07-29T03:35:34;21.50;85.60
11055;DHT22;5580;50.106;8.702;2022-07-29T03:37:59;21.60;86.90
11055;DHT22;5580;50.106;8.702;2022-07-29T03:40:38;21.50;86.30
11055;DHT22;5580;50.106;8.702;2022-07-29T03:43:05;21.50;86.80
11055;DHT22;5580;50.106;8.702;2022-07-29T03:45:33;21.50;87.10
11055;DHT22;5580;50.106;8.702;2022-07-29T03:48:02;21.50;86.70
11055;DHT22;5580;50.106;8.702;2022-07-29T03:50:31;21.50;86.80
11055;DHT22;5580;50.106;8.702;2022-07-29T03:52:57;21.50;86.90
11055;DHT22;5580;50.106;8.702;2022-07-29T03:55:23;21.40;87.40
11055;DHT22;5580;50.106;8.702;2022-07-29T03:57:49;21.40;87.50
11055;DHT22;5580;50.106;8.702;2022-07-29T04:00:16;21.40;87.20
11055;DHT22;5580;50.106;8.702;2022-07-29T04:02:43;21.20;86.70
11055;DHT22;5580;50.106;8.702;2022-07-29T04:05:14;21.20;87.30
11055;DHT22;5580;50.106;8.702;2022-07-29T04:07:49;21.20;87.60
11055;DHT22;5580;50.106;8.702;2022-07-29T04:10:15;21.20;87.50
11055;DHT22;5580;50.106;8.702;2022-07-29T04:12:42;21.20;87.80
11055;DHT22;5580;50.106;8.702;2022-07-29T04:15:08;21.10;87.80
11055;DHT22;5580;50.106;8.702;2022-07-29T04:17:34;21.00;87.80
11055;DHT22;5580;50.106;8.702;2022-07-29T04:19:59;21.00;88.20
11055;DHT22;5580;50.106;8.702;2022-07-29T04:22:25;21.00;87.70
11055;DHT22;5580;50.106;8.702;2022-07-29T04:24:51;21.00;87.20
11055;DHT22;5580;50.106;8.702;2022-07-29T04:27:16;20.90;87.00
11055;DHT22;5580;50.106;8.702;2022-07-29T04:29:42;20.90;87.30
11055;DHT22;5580;50.106;8.702;2022-07-29T04:32:07;20.80;85.80
11055;DHT22;5580;50.106;8.702;2022-07-29T04:34:33;20.70;85.60
11055;DHT22;5580;50.106;8.702;2022-07-29T04:36:58;20.70;85.60
11055;DHT22;5580;50.106;8.702;2022-07-29T04:39:24;20.60;85.60
11055;DHT22;5580;50.106;8.702;2022-07-29T04:41:51;20.60;86.20
11055;DHT22;5580;50.106;8.702;2022-07-29T04:44:16;20.60;86.60
11055;DHT22;5580;50.106;8.702;2022-07-29T04:46:42;20.70;86.90
11055;DHT22;5580;50.106;8.702;2022-07-29T04:49:08;20.70;86.70
11055;DHT22;5580;50.106;8.702;2022-07-29T04:51:34;20.60;86.90
11055;DHT22;5580;50.106;8.702;2022-07-29T04:54:00;20.60;86.30
11055;DHT22;5580;50.106;8.702;2022-07-29T04:56:25;20.60;86.20
11055;DHT22;5580;50.106;8.702;2022-07-29T04:58:51;20.50;86.50
11055;DHT22;5580;50.106;8.702;2022-07-29T05:01:17;20.60;87.30
11055;DHT22;5580;50.106;8.702;2022-07-29T05:03:42;20.60;87.70
11055;DHT22;5580;50.106;8.702;2022-07-29T05:06:08;20.80;87.20
11055;DHT22;5580;50.106;8.702;2022-07-29T05:08:34;20.90;86.80
11055;DHT22;5580;50.106;8.702;2022-07-29T05:10:59;21.00;85.30
11055;DHT22;5580;50.106;8.702;2022-07-29T05:13:25;21.20;86.00
11055;DHT22;5580;50.106;8.702;2022-07-29T05:15:50;21.40;85.00
11055;DHT22;5580;50.106;8.702;2022-07-29T05:18:16;21.40;84.10
11055;DHT22;5580;50.106;8.702;2022-07-29T05:20:41;21.50;83.40
11055;DHT22;5580;50.106;8.702;2022-07-29T05:23:07;21.40;83.50
11055;DHT22;5580;50.106;8.702;2022-07-29T05:25:33;21.50;83.80
11055;DHT22;5580;50.106;8.702;2022-07-29T05:27:58;21.60;85.40
11055;DHT22;5580;50.106;8.702;2022-07-29T05:30:24;21.80;85.80
11055;DHT22;5580;50.106;8.702;2022-07-29T05:32:50;22.00;85.60
11055;DHT22;5580;50.106;8.702;2022-07-29T05:35:16;22.10;85.70
11055;DHT22;5580;50.106;8.702;2022-07-29T05:37:42;22.20;83.90
11055;DHT22;5580;50.106;8.702;2022-07-29T05:40:08;22.30;83.90
11055;DHT22;5580;50.106;8.702;2022-07-29T05:42:34;22.30;82.70
11055;DHT22;5580;50.106;8.702;2022-07-29T05:45:01;22.40;82.90
11055;DHT22;5580;50.106;8.702;2022-07-29T05:47:26;22.50;81.70
11055;DHT22;5580;50.106;8.702;2022-07-29T05:49:52;22.40;81.70
11055;DHT22;5580;50.106;8.702;2022-07-29T05:52:18;22.40;82.30
11055;DHT22;5580;50.106;8.702;2022-07-29T05:54:44;22.40;80.80
11055;DHT22;5580;50.106;8.702;2022-07-29T05:57:22;22.50;83.00
11055;DHT22;5580;50.106;8.702;2022-07-29T05:59:49;22.60;82.90
11055;DHT22;5580;50.106;8.702;2022-07-29T06:02:15;22.60;81.40
11055;DHT22;5580;50.106;8.702;2022-07-29T06:04:41;22.60;80.90
11055;DHT22;5580;50.106;8.702;2022-07-29T06:07:07;22.70;81.30
11055;DHT22;5580;50.106;8.702;2022-07-29T06:09:34;22.80;81.00
11055;DHT22;5580;50.106;8.702;2022-07-29T06:12:00;22.80;81.80
11055;DHT22;5580;50.106;8.702;2022-07-29T06:14:26;22.90;81.90
11055;DHT22;5580;50.106;8.702;2022-07-29T06:16:55;23.00;82.30
11055;DHT22;5580;50.106;8.702;2022-07-29T06:19:21;23.00;81.30
11055;DHT22;5580;50.106;8.702;2022-07-29T06:21:47;23.00;82.30
11055;DHT22;5580;50.106;8.702;2022-07-29T06:24:14;23.00;81.00
11055;DHT22;5580;50.106;8.702;2022-07-29T06:26:41;23.10;81.60
11055;DHT22;5580;50.106;8.702;2022-07-29T06:29:08;23.10;78.90
11055;DHT22;5580;50.106;8.702;2022-07-29T06:31:34;23.00;79.40
11055;DHT22;5580;50.106;8.702;2022-07-29T06:34:00;23.00;79.90
11055;DHT22;5580;50.106;8.702;2022-07-29T06:36:25;22.90;80.20
11055;DHT22;5580;50.106;8.702;2022-07-29T06:38:51;22.90;79.50
11055;DHT22;5580;50.106;8.702;2022-07-29T06:41:16;22.80;80.10
11055;DHT22;5580;50.106;8.702;2022-07-29T06:43:44;22.70;79.70
11055;DHT22;5580;50.106;8.702;2022-07-29T06:46:13;22.70;80.10
11055;DHT22;5580;50.106;8.702;2022-07-29T06:48:40;22.70;80.70
11055;DHT22;5580;50.106;8.702;2022-07-29T06:51:08;22.80;80.00
11055;DHT22;5580;50.106;8.702;2022-07-29T06:53:34;22.80;81.00
11055;DHT22;5580;50.106;8.702;2022-07-29T06:56:02;22.80;80.40
11055;DHT22;5580;50.106;8.702;2022-07-29T06:58:28;22.90;81.30
11055;DHT22;5580;50.106;8.702;2022-07-29T07:00:55;22.90;81.50
11055;DHT22;5580;50.106;8.702;2022-07-29T07:03:21;22.90;81.80
11055;DHT22;5580;50.106;8.702;2022-07-29T07:05:48;23.00;81.70
11055;DHT22;5580;50.106;8.702;2022-07-29T07:08:13;23.00;81.50
11055;DHT22;5580;50.106;8.702;2022-07-29T07:10:41;23.00;82.20
11055;DHT22;5580;50.106;8.702;2022-07-29T07:13:07;23.00;81.80
11055;DHT22;5580;50.106;8.702;2022-07-29T07:15:33;23.00;81.00
11055;DHT22;5580;50.106;8.702;2022-07-29T07:17:58;22.90;80.40
11055;DHT22;5580;50.106;8.702;2022-07-29T07:20:24;22.80;81.00
11055;DHT22;5580;50.106;8.702;2022-07-29T07:22:50;22.90;81.10
11055;DHT22;5580;50.106;8.702;2022-07-29T07:25:16;22.90;81.40
11055;DHT22;5580;50.106;8.702;2022-07-29T07:27:43;23.00;81.60
11055;DHT22;5580;50.106;8.702;2022-07-29T07:30:10;23.10;81.10
11055;DHT22;5580;50.106;8.702;2022-07-29T07:32:36;23.10;81.10
11055;DHT22;5580;50.106;8.702;2022-07-29T07:35:03;23.20;81.60
11055;DHT22;5580;50.106;8.702;2022-07-29T07:37:29;23.30;80.70
11055;DHT22;5580;50.106;8.702;2022-07-29T07:39:55;23.20;79.40
11055;DHT22;5580;50.106;8.702;2022-07-29T07:42:20;23.30;80.00
11055;DHT22;5580;50.106;8.702;2022-07-29T07:44:46;23.30;80.60
11055;DHT22;5580;50.106;8.702;2022-07-29T07:47:14;23.30;80.70
11055;DHT22;5580;50.106;8.702;2022-07-29T07:49:40;23.40;80.70
11055;DHT22;5580;50.106;8.702;2022-07-29T07:52:05;23.50;81.60
11055;DHT22;5580;50.106;8.702;2022-07-29T07:54:31;23.60;80.70
11055;DHT22;5580;50.106;8.702;2022-07-29T07:56:57;23.70;79.50
11055;DHT22;5580;50.106;8.702;2022-07-29T07:59:23;23.70;80.10
11055;DHT22;5580;50.106;8.702;2022-07-29T08:01:49;23.80;80.20
11055;DHT22;5580;50.106;8.702;2022-07-29T08:04:14;23.80;78.40
11055;DHT22;5580;50.106;8.702;2022-07-29T08:06:40;23.90;77.80
11055;DHT22;5580;50.106;8.702;2022-07-29T08:09:06;23.90;78.90
11055;DHT22;5580;50.106;8.702;2022-07-29T08:11:32;23.90;77.10
11055;DHT22;5580;50.106;8.702;2022-07-29T08:13:57;24.00;76.80
11055;DHT22;5580;50.106;8.702;2022-07-29T08:16:23;24.10;77.70
11055;DHT22;5580;50.106;8.702;2022-07-29T08:18:50;24.20;79.00
11055;DHT22;5580;50.106;8.702;2022-07-29T08:21:17;24.20;76.10
11055;DHT22;5580;50.106;8.702;2022-07-29T08:23:45;24.30;76.20
11055;DHT22;5580;50.106;8.702;2022-07-29T08:26:14;24.30;77.20
11055;DHT22;5580;50.106;8.702;2022-07-29T08:28:43;24.30;77.50
11055;DHT22;5580;50.106;8.702;2022-07-29T08:31:12;24.40;77.20
11055;DHT22;5580;50.106;8.702;2022-07-29T08:33:38;24.40;77.50
11055;DHT22;5580;50.106;8.702;2022-07-29T08:36:05;24.50;77.80
11055;DHT22;5580;50.106;8.702;2022-07-29T08:38:31;24.50;77.50
11055;DHT22;5580;50.106;8.702;2022-07-29T08:40:58;24.60;76.50
11055;DHT22;5580;50.106;8.702;2022-07-29T08:43:25;24.60;77.00
11055;DHT22;5580;50.106;8.702;2022-07-29T08:45:51;24.70;76.40
11055;DHT22;5580;50.106;8.702;2022-07-29T08:48:21;24.80;76.80
11055;DHT22;5580;50.106;8.702;2022-07-29T08:50:48;24.90;78.50
11055;DHT22;5580;50.106;8.702;2022-07-29T08:53:16;24.90;76.70
11055;DHT22;5580;50.106;8.702;2022-07-29T08:55:43;24.90;77.20
11055;DHT22;5580;50.106;8.702;2022-07-29T08:58:10;24.90;78.20
11055;DHT22;5580;50.106;8.702;2022-07-29T09:00:43;25.00;77.70
11055;DHT22;5580;50.106;8.702;2022-07-29T09:03:12;24.90;78.10
11055;DHT22;5580;50.106;8.702;2022-07-29T09:05:42;25.00;79.10
11055;DHT22;5580;50.106;8.702;2022-07-29T09:08:08;25.00;78.10
11055;DHT22;5580;50.106;8.702;2022-07-29T09:10:37;25.00;78.50
11055;DHT22;5580;50.106;8.702;2022-07-29T09:13:03;25.10;78.50
11055;DHT22;5580;50.106;8.702;2022-07-29T09:15:29;25.10;78.60
11055;DHT22;5580;50.106;8.702;2022-07-29T09:17:54;25.30;79.20
11055;DHT22;5580;50.106;8.702;2022-07-29T09:20:22;25.40;78.80
11055;DHT22;5580;50.106;8.702;2022-07-29T09:22:49;25.40;78.20
11055;DHT22;5580;50.106;8.702;2022-07-29T09:25:37;25.40;79.10
11055;DHT22;5580;50.106;8.702;2022-07-29T09:28:14;25.40;78.30
11055;DHT22;5580;50.106;8.702;2022-07-29T09:30:56;25.40;77.80
11055;DHT22;5580;50.106;8.702;2022-07-29T09:33:24;25.50;78.90
11055;DHT22;5580;50.106;8.702;2022-07-29T09:36:04;25.60;78.60
11055;DHT22;5580;50.106;8.702;2022-07-29T09:38:31;25.80;79.50
11055;DHT22;5580;50.106;8.702;2022-07-29T09:40:58;25.80;79.10
11055;DHT22;5580;50.106;8.702;2022-07-29T09:43:24;25.80;77.90
11055;DHT22;5580;50.106;8.702;2022-07-29T09:45:50;25.70;76.70
11055;DHT22;5580;50.106;8.702;2022-07-29T09:48:19;25.70;78.00
11055;DHT22;5580;50.106;8.702;2022-07-29T09:50:46;25.80;78.80
11055;DHT22;5580;50.106;8.702;2022-07-29T09:53:36;25.80;78.50
11055;DHT22;5580;50.106;8.702;2022-07-29T09:56:04;25.80;79.20
11055;DHT22;5580;50.106;8.702;2022-07-29T09:58:30;25.90;79.90
11055;DHT22;5580;50.106;8.702;2022-07-29T10:00:59;25.90;78.80
11055;DHT22;5580;50.106;8.702;2022-07-29T10:03:24;25.90;79.50
11055;DHT22;5580;50.106;8.702;2022-07-29T10:06:10;25.90;79.60
11055;DHT22;5580;50.106;8.702;2022-07-29T10:08:36;26.00;79.50
11055;DHT22;5580;50.106;8.702;2022-07-29T10:11:14;26.00;78.60
11055;DHT22;5580;50.106;8.702;2022-07-29T10:13:41;25.90;78.70
11055;DHT22;5580;50.106;8.702;2022-07-29T10:16:07;26.00;78.80
11055;DHT22;5580;50.106;8.702;2022-07-29T10:18:34;26.00;79.60
11055;DHT22;5580;50.106;8.702;2022-07-29T10:21:00;26.10;79.50
11055;DHT22;5580;50.106;8.702;2022-07-29T10:23:30;26.10;79.00
11055;DHT22;5580;50.106;8.702;2022-07-29T10:25:56;26.10;79.50
11055;DHT22;5580;50.106;8.702;2022-07-29T10:28:21;26.10;79.10
11055;DHT22;5580;50.106;8.702;2022-07-29T10:30:50;26.10;79.80
11055;DHT22;5580;50.106;8.702;2022-07-29T10:33:44;26.20;79.60
11055;DHT22;5580;50.106;8.702;2022-07-29T10:42:19;26.10;81.40
11055;DHT22;5580;50.106;8.702;2022-07-29T10:44:46;26.10;80.90
11055;DHT22;5580;50.106;8.702;2022-07-29T10:47:38;26.10;80.90
11055;DHT22;5580;50.106;8.702;2022-07-29T10:50:05;26.20;80.60
11055;DHT22;5580;50.106;8.702;2022-07-29T10:55:36;26.40;80.00
11055;DHT22;5580;50.106;8.702;2022-07-29T10:58:20;26.40;80.40
11055;DHT22;5580;50.106;8.702;2022-07-29T11:00:54;26.50;80.20
11055;DHT22;5580;50.106;8.702;2022-07-29T11:06:07;26.50;79.20
11055;DHT22;5580;50.106;8.702;2022-07-29T11:08:33;26.50;78.10
11055;DHT22;5580;50.106;8.702;2022-07-29T11:16:11;26.40;77.40
11055;DHT22;5580;50.106;8.702;2022-07-29T11:21:40;26.40;77.90
11055;DHT22;5580;50.106;8.702;2022-07-29T11:24:13;26.40;78.20
11055;DHT22;5580;50.106;8.702;2022-07-29T11:26:39;26.50;78.10
11055;DHT22;5580;50.106;8.702;2022-07-29T11:31:44;26.70;77.10
11055;DHT22;5580;50.106;8.702;2022-07-29T11:34:29;26.70;77.50
11055;DHT22;5580;50.106;8.702;2022-07-29T11:39:35;26.70;78.20
11055;DHT22;5580;50.106;8.702;2022-07-29T11:47:34;26.80;78.60
11055;DHT22;5580;50.106;8.702;2022-07-29T11:50:02;26.80;77.40
11055;DHT22;5580;50.106;8.702;2022-07-29T11:52:34;26.70;77.40
11055;DHT22;5580;50.106;8.702;2022-07-29T11:55:04;26.80;77.20
11055;DHT22;5580;50.106;8.702;2022-07-29T11:57:30;26.80;77.80
11055;DHT22;5580;50.106;8.702;2022-07-29T11:59:58;26.80;77.50
11055;DHT22;5580;50.106;8.702;2022-07-29T12:02:23;26.80;77.60
11055;DHT22;5580;50.106;8.702;2022-07-29T12:04:54;26.80;77.40
11055;DHT22;5580;50.106;8.702;2022-07-29T12:07:33;26.80;76.90
11055;DHT22;5580;50.106;8.702;2022-07-29T12:10:00;26.90;76.80
11055;DHT22;5580;50.106;8.702;2022-07-29T12:12:26;26.80;77.30
11055;DHT22;5580;50.106;8.702;2022-07-29T12:14:52;26.80;77.40
11055;DHT22;5580;50.106;8.702;2022-07-29T12:17:34;26.80;77.80
11055;DHT22;5580;50.106;8.702;2022-07-29T12:20:04;26.80;77.40
11055;DHT22;5580;50.106;8.702;2022-07-29T12:22:30;26.80;79.00
11055;DHT22;5580;50.106;8.702;2022-07-29T12:25:01;26.80;78.70
11055;DHT22;5580;50.106;8.702;2022-07-29T12:27:28;26.80;78.10
11055;DHT22;5580;50.106;8.702;2022-07-29T12:30:03;26.80;77.40
11055;DHT22;5580;50.106;8.702;2022-07-29T12:32:40;26.90;77.30
11055;DHT22;5580;50.106;8.702;2022-07-29T12:35:09;26.80;76.60
11055;DHT22;5580;50.106;8.702;2022-07-29T12:37:37;26.90;76.10
11055;DHT22;5580;50.106;8.702;2022-07-29T12:40:05;26.90;76.50
11055;DHT22;5580;50.106;8.702;2022-07-29T12:42:30;26.90;76.90
11055;DHT22;5580;50.106;8.702;2022-07-29T12:44:56;26.90;75.80
11055;DHT22;5580;50.106;8.702;2022-07-29T12:47:22;27.00;76.50
11055;DHT22;5580;50.106;8.702;2022-07-29T12:49:49;27.00;76.20
11055;DHT22;5580;50.106;8.702;2022-07-29T12:52:32;27.00;78.20
11055;DHT22;5580;50.106;8.702;2022-07-29T12:54:58;27.00;77.50
11055;DHT22;5580;50.106;8.702;2022-07-29T12:57:25;27.00;76.70
11055;DHT22;5580;50.106;8.702;2022-07-29T13:02:28;27.10;75.90
11055;DHT22;5580;50.106;8.702;2022-07-29T13:04:58;27.00;75.40
11055;DHT22;5580;50.106;8.702;2022-07-29T13:07:28;27.00;75.70
11055;DHT22;5580;50.106;8.702;2022-07-29T13:12:38;27.10;76.00
11055;DHT22;5580;50.106;8.702;2022-07-29T13:15:14;27.10;75.70
11055;DHT22;5580;50.106;8.702;2022-07-29T13:17:44;27.20;75.40
11055;DHT22;5580;50.106;8.702;2022-07-29T13:20:11;27.20;75.90
11055;DHT22;5580;50.106;8.702;2022-07-29T13:22:41;27.30;76.20
11055;DHT22;5580;50.106;8.702;2022-07-29T13:25:10;27.30;75.90
11055;DHT22;5580;50.106;8.702;2022-07-29T13:27:38;27.30;76.40
11055;DHT22;5580;50.106;8.702;2022-07-29T13:30:06;27.30;75.70
11055;DHT22;5580;50.106;8.702;2022-07-29T13:32:33;27.30;75.40
11055;DHT22;5580;50.106;8.702;2022-07-29T13:35:06;27.40;74.90
11055;DHT22;5580;50.106;8.702;2022-07-29T13:37:33;27.40;75.80
11055;DHT22;5580;50.106;8.702;2022-07-29T13:40:00;27.40;77.20
11055;DHT22;5580;50.106;8.702;2022-07-29T13:42:28;27.50;76.40
11055;DHT22;5580;50.106;8.702;2022-07-29T13:44:54;27.50;75.90
11055;DHT22;5580;50.106;8.702;2022-07-29T13:47:20;27.40;75.80
11055;DHT22;5580;50.106;8.702;2022-07-29T13:49:46;27.40;74.70
11055;DHT22;5580;50.106;8.702;2022-07-29T13:52:12;27.40;74.00
11055;DHT22;5580;50.106;8.702;2022-07-29T13:54:37;27.40;73.70
11055;DHT22;5580;50.106;8.702;2022-07-29T13:57:04;27.40;73.30
11055;DHT22;5580;50.106;8.702;2022-07-29T13:59:30;27.40;73.80
11055;DHT22;5580;50.106;8.702;2022-07-29T14:01:56;27.40;74.00
11055;DHT22;5580;50.106;8.702;2022-07-29T14:04:21;27.50;73.50
11055;DHT22;5580;50.106;8.702;2022-07-29T14:06:49;27.50;74.40
11055;DHT22;5580;50.106;8.702;2022-07-29T14:09:14;27.50;74.50
11055;DHT22;5580;50.106;8.702;2022-07-29T14:11:40;27.60;75.00
11055;DHT22;5580;50.106;8.702;2022-07-29T14:14:06;27.60;74.90
11055;DHT22;5580;50.106;8.702;2022-07-29T14:16:32;27.60;74.50
11055;DHT22;5580;50.106;8.702;2022-07-29T14:18:58;27.60;74.50
11055;DHT22;5580;50.106;8.702;2022-07-29T14:21:23;27.70;74.60
11055;DHT22;5580;50.106;8.702;2022-07-29T14:23:49;27.60;74.30
11055;DHT22;5580;50.106;8.702;2022-07-29T14:26:15;27.70;74.50
11055;DHT22;5580;50.106;8.702;2022-07-29T14:28:40;27.70;74.60
11055;DHT22;5580;50.106;8.702;2022-07-29T14:31:06;27.70;74.50
11055;DHT22;5580;50.106;8.702;2022-07-29T14:33:31;27.70;75.20
11055;DHT22;5580;50.106;8.702;2022-07-29T14:35:57;27.70;75.00
11055;DHT22;5580;50.106;8.702;2022-07-29T14:38:23;27.60;74.60
11055;DHT22;5580;50.106;8.702;2022-07-29T14:40:49;27.60;74.60
11055;DHT22;5580;50.106;8.702;2022-07-29T14:43:14;27.60;74.70
11055;DHT22;5580;50.106;8.702;2022-07-29T14:45:40;27.60;76.10
11055;DHT22;5580;50.106;8.702;2022-07-29T14:48:06;27.60;77.50
11055;DHT22;5580;50.106;8.702;2022-07-29T14:50:32;27.50;81.20
11055;DHT22;5580;50.106;8.702;2022-07-29T14:53:01;27.50;85.10
11055;DHT22;5580;50.106;8.702;2022-07-29T14:55:27;27.40;86.20
11055;DHT22;5580;50.106;8.702;2022-07-29T14:57:52;27.30;87.30
11055;DHT22;5580;50.106;8.702;2022-07-29T15:00:19;27.30;87.80
11055;DHT22;5580;50.106;8.702;2022-07-29T15:02:46;27.20;88.60
11055;DHT22;5580;50.106;8.702;2022-07-29T15:05:12;27.10;88.50
11055;DHT22;5580;50.106;8.702;2022-07-29T15:07:38;27.10;87.20
11055;DHT22;5580;50.106;8.702;2022-07-29T15:10:03;27.00;87.30
11055;DHT22;5580;50.106;8.702;2022-07-29T15:12:30;26.90;87.50
11055;DHT22;5580;50.106;8.702;2022-07-29T15:14:55;26.90;87.10
11055;DHT22;5580;50.106;8.702;2022-07-29T15:17:21;26.90;87.70
11055;DHT22;5580;50.106;8.702;2022-07-29T15:19:47;26.90;87.50
11055;DHT22;5580;50.106;8.702;2022-07-29T15:22:13;26.80;87.90
11055;DHT22;5580;50.106;8.702;2022-07-29T15:24:38;26.80;89.00
11055;DHT22;5580;50.106;8.702;2022-07-29T15:27:04;26.80;90.30
11055;DHT22;5580;50.106;8.702;2022-07-29T15:29:30;26.80;88.50
11055;DHT22;5580;50.106;8.702;2022-07-29T15:31:55;26.70;89.00
11055;DHT22;5580;50.106;8.702;2022-07-29T15:34:21;26.80;88.10
11055;DHT22;5580;50.106;8.702;2022-07-29T15:36:49;26.80;89.40
11055;DHT22;5580;50.106;8.702;2022-07-29T15:39:15;26.70;88.40
11055;DHT22;5580;50.106;8.702;2022-07-29T15:41:41;26.70;89.20
11055;DHT22;5580;50.106;8.702;2022-07-29T15:44:06;26.70;86.70
11055;DHT22;5580;50.106;8.702;2022-07-29T15:46:32;26.70;88.10
11055;DHT22;5580;50.106;8.702;2022-07-29T15:49:16;26.70;87.60
11055;DHT22;5580;50.106;8.702;2022-07-29T15:51:42;26.70;86.50
11055;DHT22;5580;50.106;8.702;2022-07-29T15:54:07;26.80;87.70
11055;DHT22;5580;50.106;8.702;2022-07-29T15:56:33;26.80;89.50
11055;DHT22;5580;50.106;8.702;2022-07-29T15:58:59;26.80;89.90
11055;DHT22;5580;50.106;8.702;2022-07-29T16:01:25;26.80;89.00
11055;DHT22;5580;50.106;8.702;2022-07-29T16:03:51;26.80;87.20
11055;DHT22;5580;50.106;8.702;2022-07-29T16:06:17;26.80;87.30
11055;DHT22;5580;50.106;8.702;2022-07-29T16:08:43;26.80;87.50
11055;DHT22;5580;50.106;8.702;2022-07-29T16:11:09;26.80;84.50
11055;DHT22;5580;50.106;8.702;2022-07-29T16:13:34;26.70;85.90
11055;DHT22;5580;50.106;8.702;2022-07-29T16:16:00;26.60;90.20
11055;DHT22;5580;50.106;8.702;2022-07-29T16:18:26;26.50;90.30
11055;DHT22;5580;50.106;8.702;2022-07-29T16:20:51;26.30;90.50
11055;DHT22;5580;50.106;8.702;2022-07-29T16:23:17;26.20;90.90
11055;DHT22;5580;50.106;8.702;2022-07-29T16:25:42;26.10;91.40
11055;DHT22;5580;50.106;8.702;2022-07-29T16:28:08;26.00;91.60
11055;DHT22;5580;50.106;8.702;2022-07-29T16:30:35;25.90;92.10
11055;DHT22;5580;50.106;8.702;2022-07-29T16:33:01;25.80;92.30
11055;DHT22;5580;50.106;8.702;2022-07-29T16:35:27;25.90;92.30